Time;durP1;ratioP1;P1;durP2;ratioP2;P2;SDS_P1;SDS_P2;PMS_P1;PMS_P2;Temp;Humidity;BMP_temperature;BMP_pressure;BME280_temperature;BME280_humidity;BME280_pressure;Samples;Min_cycle;Max_cycle;Signal;HPM_P1;HPM_P2
2022/11/14 00:00:34;;;;;;;;;;;;;;;5.90;100.00;100963.06;4385483;32;34793;-81
2022/11/14 00:03:38;;;;;;;;;;;;;;;6.13;100.00;100952.03;4386043;32;34720;-80
2022/11/14 00:06:43;;;;;;;;;;;;;;;6.84;100.00;100941.28;4393407;32;35948;-81
2022/11/14 00:09:48;;;;;;;;;;;;;;;6.44;100.00;100941.56;4385376;32;34527;-81
2022/11/14 00:12:52;;;;;;;;;;;;;;;6.67;100.00;100935.88;4386507;32;35108;-81
2022/11/14 00:15:56;;;;;;;;;;;;;;;7.06;100.00;100941.25;4385380;32;35202;-81
2022/11/14 00:19:01;;;;;;;;;;;;;;;6.83;100.00;100946.97;4383920;32;35753;-81
2022/11/14 00:22:05;;;;;;;;;;;;;;;6.11;100.00;100948.72;4386183;32;34399;-81
2022/11/14 00:25:09;;;;;;;;;;;;;;;4.82;100.00;100946.69;4375592;32;35747;-81
2022/11/14 00:28:14;;;;;;;;;;;;;;;6.24;100.00;100948.38;4386331;32;35596;-81
2022/11/14 00:31:18;;;;;;;;;;;;;;;6.89;100.00;100938.59;4384331;32;34419;-80
2022/11/14 00:34:23;;;;;;;;;;;;;;;5.34;100.00;100939.25;4375813;32;34054;-80
2022/11/14 00:37:28;;;;;;;;;;;;;;;4.93;100.00;100948.56;4386552;32;35631;-80
2022/11/14 00:40:32;;;;;;;;;;;;;;;5.60;100.00;100940.53;4384852;32;35031;-80
2022/11/14 00:43:36;;;;;;;;;;;;;;;6.71;100.00;100937.00;4384953;32;35540;-81
2022/11/14 00:46:41;;;;;;;;;;;;;;;7.05;100.00;100945.03;4386901;32;34041;-80
2022/11/14 00:49:45;;;;;;;;;;;;;;;6.33;100.00;100943.34;4385657;32;34675;-81
2022/11/14 00:52:49;;;;;;;;;;;;;;;6.53;100.00;100940.88;4386386;32;35055;-81
2022/11/14 00:55:54;;;;;;;;;;;;;;;7.26;100.00;100931.63;4383729;32;34762;-81
2022/11/14 00:58:58;;;;;;;;;;;;;;;7.51;100.00;100936.50;4385574;32;35174;-81
2022/11/14 01:02:02;;;;;;;;;;;;;;;7.38;100.00;100935.03;4385234;32;35509;-81
2022/11/14 01:05:06;;;;;;;;;;;;;;;7.36;100.00;100937.19;4390432;32;35139;-81
2022/11/14 01:08:12;;;;;;;;;;;;;;;7.62;100.00;100938.25;4376060;32;34402;-81
2022/11/14 01:11:18;;;;;;;;;;;;;;;7.05;100.00;100930.59;4368137;32;34023;-81
2022/11/14 01:14:23;;;;;;;;;;;;;;;7.27;100.00;100930.56;4387688;32;34501;-81
2022/11/14 01:17:27;;;;;;;;;;;;;;;6.65;100.00;100921.69;4386405;32;34921;-81
2022/11/14 01:20:31;;;;;;;;;;;;;;;6.93;100.00;100922.56;4383550;32;34757;-81
2022/11/14 01:23:36;;;;;;;;;;;;;;;6.76;100.00;100906.28;4393370;32;33660;-81
2022/11/14 01:26:40;;;;;;;;;;;;;;;6.99;100.00;100910.66;4391969;32;35667;-81
2022/11/14 01:29:45;;;;;;;;;;;;;;;7.60;100.00;100927.59;4387231;32;34942;-81
2022/11/14 01:32:49;;;;;;;;;;;;;;;7.79;100.00;100913.56;4377602;32;35592;-81
2022/11/14 01:35:53;;;;;;;;;;;;;;;7.69;100.00;100913.50;4384542;32;34649;-81
2022/11/14 01:38:58;;;;;;;;;;;;;;;7.21;100.00;100914.16;4376703;32;34402;-81
2022/11/14 01:42:02;;;;;;;;;;;;;;;7.02;100.00;100904.69;4380288;32;35363;-81
2022/11/14 01:45:26;;;;;;;;;;;;;;;7.23;100.00;100905.72;4388972;32;35630;-81
2022/11/14 01:48:39;;;;;;;;;;;;;;;7.06;100.00;100907.69;4379035;32;34993;-81
2022/11/14 01:51:59;;;;;;;;;;;;;;;7.13;100.00;100905.63;4388853;32;34344;-81
2022/11/14 01:55:06;;;;;;;;;;;;;;;7.16;100.00;100895.00;4391066;32;34716;-81
2022/11/14 01:58:11;;;;;;;;;;;;;;;7.14;100.00;100891.75;4390062;32;34881;-81
2022/11/14 02:01:15;;;;;;;;;;;;;;;7.50;100.00;100896.69;4387211;32;34917;-81
2022/11/14 02:04:24;;;;;;;;;;;;;;;7.35;100.00;100894.66;4394198;32;34462;-81
2022/11/14 02:07:30;;;;;;;;;;;;;;;5.86;100.00;100892.84;4388317;32;35250;-81
2022/11/14 02:10:34;;;;;;;;;;;;;;;6.82;100.00;100891.66;4389158;32;35832;-81
2022/11/14 02:13:38;;;;;;;;;;;;;;;6.99;100.00;100889.66;4391124;32;33642;-80
2022/11/14 02:16:43;;;;;;;;;;;;;;;7.07;100.00;100888.37;4390516;32;34967;-81
2022/11/14 02:20:10;;;;;;;;;;;;;;;6.12;100.00;100903.28;4380263;32;35837;-80
2022/11/14 02:23:23;;;;;;;;;;;;;;;7.11;100.00;100888.69;4386490;32;35723;-80
2022/11/14 02:26:28;;;;;;;;;;;;;;;7.07;100.00;100891.09;4391254;32;33711;-80
2022/11/14 02:29:39;;;;;;;;;;;;;;;6.22;100.00;100890.63;4383201;32;34912;-81
2022/11/14 02:32:44;;;;;;;;;;;;;;;7.10;100.00;100887.87;4372167;32;34859;-80
2022/11/14 02:36:09;;;;;;;;;;;;;;;7.42;100.00;100887.06;4392278;32;34860;-80
2022/11/14 02:39:14;;;;;;;;;;;;;;;5.60;100.00;100888.88;4388359;32;34757;-80
2022/11/14 02:42:18;;;;;;;;;;;;;;;5.69;100.00;100891.19;4384073;32;34472;-80
2022/11/14 02:45:23;;;;;;;;;;;;;;;5.90;100.00;100897.78;4388741;32;35201;-81
2022/11/14 02:48:27;;;;;;;;;;;;;;;5.48;100.00;100900.91;4393057;32;34605;-81
2022/11/14 02:51:32;;;;;;;;;;;;;;;5.61;100.00;100903.31;4388154;32;34028;-81
2022/11/14 02:54:37;;;;;;;;;;;;;;;4.93;100.00;100895.06;4387475;32;35823;-81
2022/11/14 02:57:42;;;;;;;;;;;;;;;5.33;100.00;100888.72;4387764;32;35253;-81
2022/11/14 03:00:46;;;;;;;;;;;;;;;5.18;100.00;100888.44;4388707;32;34404;-80
2022/11/14 03:04:10;;;;;;;;;;;;;;;5.27;100.00;100895.13;4377308;32;35042;-81
2022/11/14 03:07:15;;;;;;;;;;;;;;;6.38;100.00;100893.59;4381704;32;34946;-81
2022/11/14 03:10:20;;;;;;;;;;;;;;;6.80;100.00;100877.47;4375360;32;36035;-80
2022/11/14 03:13:27;;;;;;;;;;;;;;;6.08;100.00;100883.91;4380107;32;34430;-80
2022/11/14 03:16:31;;;;;;;;;;;;;;;6.07;100.00;100893.16;4385228;32;33997;-80
2022/11/14 03:19:36;;;;;;;;;;;;;;;6.14;100.00;100896.50;4380283;32;34484;-80
2022/11/14 03:22:40;;;;;;;;;;;;;;;5.74;100.00;100873.03;4377803;32;35217;-81
2022/11/14 03:25:44;;;;;;;;;;;;;;;5.96;100.00;100875.03;4388158;32;34477;-81
2022/11/14 03:28:49;;;;;;;;;;;;;;;5.96;100.00;100884.03;4389058;32;34134;-81
2022/11/14 03:31:53;;;;;;;;;;;;;;;5.49;100.00;100875.34;4387486;32;34883;-80
2022/11/14 03:34:58;;;;;;;;;;;;;;;5.27;100.00;100873.38;4387176;32;35286;-80
2022/11/14 03:38:02;;;;;;;;;;;;;;;4.97;100.00;100874.47;4387981;32;35716;-80
2022/11/14 03:41:06;;;;;;;;;;;;;;;5.67;100.00;100875.13;4387140;32;34912;-80
2022/11/14 03:44:10;;;;;;;;;;;;;;;5.83;100.00;100874.28;4387934;32;33624;-80
2022/11/14 03:47:15;;;;;;;;;;;;;;;5.75;100.00;100872.00;4387048;32;35308;-81
2022/11/14 03:50:19;;;;;;;;;;;;;;;5.39;100.00;100870.59;4377772;32;35612;-81
2022/11/14 03:53:24;;;;;;;;;;;;;;;5.66;100.00;100867.19;4394627;32;33794;-80
2022/11/14 03:56:28;;;;;;;;;;;;;;;4.65;100.00;100871.44;4387882;32;35411;-80
2022/11/14 03:59:33;;;;;;;;;;;;;;;4.37;100.00;100869.50;4379614;32;35099;-80
2022/11/14 04:02:37;;;;;;;;;;;;;;;4.70;100.00;100865.28;4387086;32;34542;-80
2022/11/14 04:05:44;;;;;;;;;;;;;;;4.44;100.00;100864.78;4388873;32;34861;-80
2022/11/14 04:08:50;;;;;;;;;;;;;;;4.86;100.00;100861.78;4389360;32;34937;-80
2022/11/14 04:11:55;;;;;;;;;;;;;;;5.40;100.00;100858.62;4388439;32;36153;-80
2022/11/14 04:14:59;;;;;;;;;;;;;;;4.12;100.00;100861.66;4387945;32;35487;-80
2022/11/14 04:18:03;;;;;;;;;;;;;;;4.19;100.00;100858.81;4386996;32;33615;-80
2022/11/14 04:21:08;;;;;;;;;;;;;;;5.03;100.00;100869.16;4384255;32;34831;-80
2022/11/14 04:24:12;;;;;;;;;;;;;;;5.21;100.00;100862.66;4388083;32;36237;-80
2022/11/14 04:27:16;;;;;;;;;;;;;;;4.55;100.00;100862.25;4385281;32;34587;-81
2022/11/14 04:30:20;;;;;;;;;;;;;;;4.36;100.00;100853.47;4367765;32;33909;-81
2022/11/14 04:33:25;;;;;;;;;;;;;;;4.56;100.00;100850.34;4379066;32;34676;-81
2022/11/14 04:36:29;;;;;;;;;;;;;;;4.81;100.00;100850.00;4386745;32;36489;-81
2022/11/14 04:39:35;;;;;;;;;;;;;;;4.53;100.00;100839.97;4372877;32;34457;-81
2022/11/14 04:42:39;;;;;;;;;;;;;;;5.26;100.00;100844.53;4387103;32;34132;-81
2022/11/14 04:45:43;;;;;;;;;;;;;;;5.61;100.00;100832.63;4388947;32;34423;-80
2022/11/14 04:48:47;;;;;;;;;;;;;;;5.24;100.00;100845.88;4389620;32;35062;-81
2022/11/14 04:51:52;;;;;;;;;;;;;;;4.81;100.00;100825.56;4390593;32;36337;-80
2022/11/14 04:54:56;;;;;;;;;;;;;;;5.23;100.00;100823.31;4388789;32;34858;-80
2022/11/14 04:58:01;;;;;;;;;;;;;;;5.13;100.00;100829.41;4395530;32;34549;-80
2022/11/14 05:01:10;;;;;;;;;;;;;;;4.48;100.00;100811.66;4387729;32;35253;-83
2022/11/14 05:04:14;;;;;;;;;;;;;;;5.08;100.00;100818.44;4379539;32;34875;-84
2022/11/14 05:07:18;;;;;;;;;;;;;;;5.16;100.00;100818.03;4387889;32;34514;-83
2022/11/14 05:10:23;;;;;;;;;;;;;;;5.57;100.00;100812.41;4386713;32;34521;-83
2022/11/14 05:13:28;;;;;;;;;;;;;;;5.69;100.00;100807.69;4380863;32;33719;-84
2022/11/14 05:16:32;;;;;;;;;;;;;;;5.39;100.00;100814.34;4377591;32;35393;-83
2022/11/14 05:19:37;;;;;;;;;;;;;;;6.08;100.00;100808.53;4387052;32;34081;-83
2022/11/14 05:22:41;;;;;;;;;;;;;;;5.98;100.00;100811.16;4381694;32;34922;-84
2022/11/14 05:25:45;;;;;;;;;;;;;;;5.61;100.00;100819.03;4379771;32;36151;-83
2022/11/14 05:28:50;;;;;;;;;;;;;;;6.17;100.00;100817.09;4394786;32;34862;-83
2022/11/14 05:31:55;;;;;;;;;;;;;;;5.66;100.00;100815.53;4389074;32;33730;-83
2022/11/14 05:34:59;;;;;;;;;;;;;;;6.11;100.00;100818.09;4388838;32;34851;-83
2022/11/14 05:38:04;;;;;;;;;;;;;;;6.47;100.00;100815.81;4389633;32;36076;-83
2022/11/14 05:41:09;;;;;;;;;;;;;;;6.11;100.00;100815.38;4388242;32;34956;-83
2022/11/14 05:44:13;;;;;;;;;;;;;;;5.78;100.00;100817.09;4382111;32;34558;-83
2022/11/14 05:47:18;;;;;;;;;;;;;;;5.55;100.00;100814.56;4389270;32;35766;-83
2022/11/14 05:50:22;;;;;;;;;;;;;;;6.36;100.00;100814.88;4379518;32;35782;-83
2022/11/14 05:53:27;;;;;;;;;;;;;;;4.88;100.00;100816.19;4388977;32;35671;-83
2022/11/14 05:56:31;;;;;;;;;;;;;;;5.55;100.00;100820.00;4389704;32;33505;-83
2022/11/14 05:59:35;;;;;;;;;;;;;;;5.87;100.00;100823.75;4384488;32;34882;-83
2022/11/14 06:02:40;;;;;;;;;;;;;;;4.84;100.00;100828.62;4379460;32;34861;-83
2022/11/14 06:05:44;;;;;;;;;;;;;;;4.67;100.00;100822.34;4388029;32;34368;-83
2022/11/14 06:08:49;;;;;;;;;;;;;;;5.22;100.00;100835.25;4393287;32;33996;-83
2022/11/14 06:11:53;;;;;;;;;;;;;;;6.02;100.00;100833.22;4380657;32;35829;-83
2022/11/14 06:14:57;;;;;;;;;;;;;;;5.18;100.00;100843.06;4388718;32;35292;-83
2022/11/14 06:18:01;;;;;;;;;;;;;;;5.81;100.00;100835.62;4393870;32;33602;-83
2022/11/14 06:21:10;;;;;;;;;;;;;;;5.98;100.00;100842.97;4386548;32;34708;-83
2022/11/14 06:24:14;;;;;;;;;;;;;;;5.38;100.00;100850.75;4390254;32;36000;-84
2022/11/14 06:27:19;;;;;;;;;;;;;;;5.65;100.00;100847.34;4394945;32;35260;-84
2022/11/14 06:30:23;;;;;;;;;;;;;;;5.70;100.00;100844.72;4388084;32;35521;-83
2022/11/14 06:33:28;;;;;;;;;;;;;;;6.41;100.00;100835.91;4378018;32;34888;-83
2022/11/14 06:36:33;;;;;;;;;;;;;;;5.93;100.00;100843.72;4388935;32;36573;-83
2022/11/14 06:39:37;;;;;;;;;;;;;;;6.30;100.00;100838.50;4387048;32;34859;-83
2022/11/14 06:42:41;;;;;;;;;;;;;;;4.49;100.00;100859.44;4378267;32;34405;-83
2022/11/14 06:45:45;;;;;;;;;;;;;;;5.19;100.00;100855.59;4388251;32;34866;-83
2022/11/14 06:48:51;;;;;;;;;;;;;;;5.84;100.00;100851.44;4392706;32;34964;-83
2022/11/14 06:51:56;;;;;;;;;;;;;;;6.38;100.00;100841.88;4387045;32;36091;-83
2022/11/14 06:55:00;;;;;;;;;;;;;;;6.49;100.00;100838.19;4390809;32;35578;-83
2022/11/14 06:58:04;;;;;;;;;;;;;;;6.46;100.00;100842.25;4394687;32;34527;-83
2022/11/14 07:01:16;;;;;;;;;;;;;;;4.89;100.00;100855.84;4388405;32;34915;-83
2022/11/14 07:04:20;;;;;;;;;;;;;;;4.71;100.00;100858.78;4394928;32;35171;-83
2022/11/14 07:07:25;;;;;;;;;;;;;;;5.04;100.00;100857.19;4377749;32;35475;-83
2022/11/14 07:10:32;;;;;;;;;;;;;;;5.96;100.00;100859.53;4388323;32;34103;-83
2022/11/14 07:13:36;;;;;;;;;;;;;;;5.38;100.00;100861.63;4387080;32;34941;-83
2022/11/14 07:16:41;;;;;;;;;;;;;;;5.90;100.00;100854.25;4383731;32;33435;-83
2022/11/14 07:19:45;;;;;;;;;;;;;;;6.04;100.00;100861.00;4389151;32;34885;-83
2022/11/14 07:22:50;;;;;;;;;;;;;;;5.11;100.00;100857.87;4376318;32;32836;-84
2022/11/14 07:25:54;;;;;;;;;;;;;;;5.54;100.00;100846.38;4375977;32;34413;-84
2022/11/14 07:28:58;;;;;;;;;;;;;;;5.48;100.00;100846.53;4374819;32;36604;-85
2022/11/14 07:32:06;;;;;;;;;;;;;;;6.51;100.00;100834.09;4368675;32;35690;-85
2022/11/14 07:35:11;;;;;;;;;;;;;;;7.11;100.00;100839.63;4364820;32;32489;-85
2022/11/14 07:38:15;;;;;;;;;;;;;;;6.72;100.00;100850.69;4377429;32;35505;-85
2022/11/14 07:41:20;;;;;;;;;;;;;;;7.17;100.00;100844.03;4376622;32;34432;-84
2022/11/14 07:44:25;;;;;;;;;;;;;;;7.80;100.00;100842.38;4367907;32;34866;-84
2022/11/14 07:47:29;;;;;;;;;;;;;;;7.64;100.00;100835.97;4377610;32;33821;-83
2022/11/14 07:50:34;;;;;;;;;;;;;;;7.86;100.00;100843.22;4366347;32;34909;-84
2022/11/14 07:53:38;;;;;;;;;;;;;;;7.93;100.00;100845.72;4378328;32;34712;-85
2022/11/14 07:56:43;;;;;;;;;;;;;;;7.84;100.00;100839.94;4367955;32;34335;-84
2022/11/14 07:59:47;;;;;;;;;;;;;;;7.35;100.00;100846.41;4374531;32;32219;-84
2022/11/14 08:02:53;;;;;;;;;;;;;;;7.37;100.00;100846.13;4376676;32;35304;-84
2022/11/14 08:06:05;;;;;;;;;;;;;;;7.57;100.00;100840.84;4376555;32;34850;-84
2022/11/14 08:09:10;;;;;;;;;;;;;;;7.70;100.00;100838.75;4376735;32;34249;-83
2022/11/14 08:12:14;;;;;;;;;;;;;;;8.49;100.00;100835.09;4377634;32;34981;-84
2022/11/14 08:15:18;;;;;;;;;;;;;;;8.70;100.00;100833.25;4376736;32;36208;-83
2022/11/14 08:18:22;;;;;;;;;;;;;;;8.72;100.00;100829.16;4368018;32;34566;-84
2022/11/14 08:21:27;;;;;;;;;;;;;;;9.00;100.00;100827.03;4376565;32;35723;-83
2022/11/14 08:24:32;;;;;;;;;;;;;;;8.58;100.00;100829.94;4356412;32;34483;-84
2022/11/14 08:27:36;;;;;;;;;;;;;;;8.95;100.00;100827.81;4334758;32;801404;-84
2022/11/14 08:30:41;;;;;;;;;;;;;;;9.51;100.00;100826.22;4363423;32;34596;-84
2022/11/14 08:33:45;;;;;;;;;;;;;;;9.55;100.00;100821.84;4377610;32;34847;-83
2022/11/14 08:36:50;;;;;;;;;;;;;;;9.09;100.00;100811.72;4370415;32;34051;-83
2022/11/14 08:39:54;;;;;;;;;;;;;;;9.46;100.00;100818.84;4361577;32;36475;-84
2022/11/14 08:42:59;;;;;;;;;;;;;;;9.36;100.00;100811.47;4379219;32;36142;-84
2022/11/14 08:46:04;;;;;;;;;;;;;;;9.75;100.00;100813.59;4378759;32;34833;-84
2022/11/14 08:49:08;;;;;;;;;;;;;;;9.81;100.00;100801.53;4379275;32;34030;-84
2022/11/14 08:52:14;;;;;;;;;;;;;;;10.03;100.00;100806.69;4377601;32;35867;-84
2022/11/14 08:55:20;;;;;;;;;;;;;;;10.32;100.00;100797.81;4370160;32;36079;-84
2022/11/14 08:58:29;;;;;;;;;;;;;;;10.49;100.00;100795.56;4376447;32;34308;-84
2022/11/14 09:01:34;;;;;;;;;;;;;;;10.08;100.00;100800.38;4375737;32;34079;-85
2022/11/14 09:04:38;;;;;;;;;;;;;;;10.41;100.00;100798.06;4376646;32;34498;-83
2022/11/14 09:07:43;;;;;;;;;;;;;;;10.21;100.00;100805.22;4378138;32;35221;-83
2022/11/14 09:10:47;;;;;;;;;;;;;;;10.35;100.00;100800.81;4363509;32;35247;-84
2022/11/14 09:13:51;;;;;;;;;;;;;;;10.32;100.00;100806.87;4367031;32;33846;-84
2022/11/14 09:16:56;;;;;;;;;;;;;;;10.67;100.00;100805.06;4377115;32;34279;-84
2022/11/14 09:20:07;;;;;;;;;;;;;;;10.12;100.00;100807.72;4375320;32;34566;-84
2022/11/14 09:23:11;;;;;;;;;;;;;;;10.45;100.00;100793.69;4372506;32;35071;-84
2022/11/14 09:26:17;;;;;;;;;;;;;;;10.69;100.00;100800.09;4375441;32;34832;-85
2022/11/14 09:29:21;;;;;;;;;;;;;;;11.01;100.00;100799.63;4378301;32;35479;-84
2022/11/14 09:32:26;;;;;;;;;;;;;;;10.84;100.00;100795.63;4367696;32;33617;-84
2022/11/14 09:35:30;;;;;;;;;;;;;;;11.13;100.00;100793.78;4353527;32;33730;-83
2022/11/14 09:38:35;;;;;;;;;;;;;;;11.55;98.53;100788.72;4361120;32;33777;-84
2022/11/14 09:41:54;;;;;;;;;;;;;;;11.11;100.00;100787.75;4375218;32;34921;-85
2022/11/14 09:45:10;;;;;;;;;;;;;;;11.71;96.75;100788.28;4369685;32;34639;-83
2022/11/14 09:48:17;;;;;;;;;;;;;;;11.63;97.63;100780.69;4378745;32;34808;-83
2022/11/14 09:51:23;;;;;;;;;;;;;;;11.33;100.00;100770.03;4368198;32;34038;-83
2022/11/14 09:54:30;;;;;;;;;;;;;;;11.37;97.76;100771.88;4385541;32;34590;-84
2022/11/14 09:57:35;;;;;;;;;;;;;;;11.93;96.03;100763.09;4379428;32;36169;-84
2022/11/14 10:01:04;;;;;;;31.02;16.08;;;;;;;11.77;96.25;100761.59;4387408;32;35560;-84
2022/11/14 10:04:28;;;;;;;;;;;;;;;11.48;98.39;100758.91;4380024;32;34152;-84
2022/11/14 10:07:38;;;;;;;;;;;;;;;11.69;95.90;100757.56;4376377;32;35717;-84
2022/11/14 10:10:47;;;;;;;;;;;;;;;12.04;95.54;100755.56;4380458;32;34771;-84
2022/11/14 10:13:56;;;;;;;;;;;;;;;12.23;92.77;100739.09;4386902;32;35108;-83
2022/11/14 10:17:19;;;;;;;;;;;;;;;11.97;93.75;100752.34;4387753;32;33741;-83
2022/11/14 10:20:35;;;;;;;;;;;;;;;12.26;92.96;100743.19;4385896;32;34539;-82
2022/11/14 10:23:44;;;;;;;;;;;;;;;12.30;93.21;100730.50;4384000;32;35277;-83
2022/11/14 10:26:55;;;;;;;;;;;;;;;12.01;92.29;100728.69;4375121;32;34820;-84
2022/11/14 10:30:02;;;;;;;;;;;;;;;12.51;91.85;100723.59;4385673;32;33990;-84
2022/11/14 10:33:07;;;;;;;;;;;;;;;12.83;87.91;100730.25;4387948;32;34515;-84
2022/11/14 10:36:17;;;;;;;;;;;;;;;12.76;87.59;100718.84;4388292;32;35324;-84
2022/11/14 10:39:23;;;;;;;;;;;;;;;13.08;84.99;100722.72;4376560;32;35610;-83
2022/11/14 10:42:34;;;;;;;;;;;;;;;12.63;88.62;100717.63;4375687;32;33581;-84
2022/11/14 10:45:43;;;;;;;;;;;;;;;12.63;88.09;100714.06;4389378;32;34967;-83
2022/11/14 10:48:49;;;;;;;;;;;;;;;12.56;87.67;100708.97;4386296;32;35013;-84
2022/11/14 10:51:56;;;;;;;;;;;;;;;12.97;85.46;100717.38;4381163;32;35280;-83
2022/11/14 10:55:06;;;;;;;;;;;;;;;12.63;88.03;100708.56;4369564;32;33381;-84
2022/11/14 10:58:11;;;;;;;;;;;;;;;12.54;88.82;100702.94;4368458;32;37412;-84
2022/11/14 11:01:37;;;;;;;;;;;;;;;12.24;90.25;100698.69;4387455;32;35457;-85
2022/11/14 11:04:45;;;;;;;;;;;;;;;12.51;88.89;100690.59;4386602;32;35389;-85
2022/11/14 11:11:32;;;;;;;;;;;;;;;12.49;88.44;100692.00;4387256;32;34923;-84
2022/11/14 11:14:37;;;;;;;;;;;;;;;12.40;91.42;100685.56;4389780;32;36056;-84
2022/11/14 11:18:02;;;;;;;;;;;;;;;12.65;89.06;100685.16;4387090;32;34314;-84
2022/11/14 11:21:14;;;;;;;;;;;;;;;12.37;89.75;100673.22;4387198;32;33644;-85
2022/11/14 11:24:35;;;;;;;;;;;;;;;12.77;89.37;100670.94;4387240;32;35767;-84
2022/11/14 11:27:40;;;;;;;;;;;;;;;12.99;86.50;100673.88;4373326;32;35259;-85
2022/11/14 11:30:53;;;;;;;;;;;;;;;12.46;91.44;100668.69;4378225;32;35666;-85
2022/11/14 11:34:02;;;;;;;;;;;;;;;12.74;88.15;100661.38;4392450;32;34208;-83
2022/11/14 11:37:09;;;;;;;;;;;;;;;12.96;87.39;100655.22;4395985;32;35081;-84
2022/11/14 11:40:16;;;;;;;;;;;;;;;13.03;86.48;100652.91;4383493;32;35825;-78
2022/11/14 11:43:23;;;;;;;;;;;;;;;12.87;87.08;100653.47;4374167;32;34492;-77
2022/11/14 11:46:47;;;;;;;;;;;;;;;12.88;86.70;100646.84;4374534;32;31986;-78
2022/11/14 11:49:51;;;;;;;;;;;;;;;13.04;86.23;100654.53;4366296;32;34754;-78
2022/11/14 11:52:58;;;;;;;;;;;;;;;12.81;87.88;100644.50;4367954;32;35272;-77
2022/11/14 11:56:10;;;;;;;;;;;;;;;13.03;86.27;100647.41;4375378;32;35672;-79
2022/11/14 11:59:33;;;;;;;;;;;;;;;13.08;88.01;100640.97;4366574;32;34899;-78
2022/11/14 12:02:38;;;;;;;;;;;;;;;12.87;86.77;100637.78;4373146;32;33362;-78
2022/11/14 12:05:54;;;;;;;;;;;;;;;13.07;87.07;100633.03;4375529;32;34862;-78
2022/11/14 12:09:34;;;;;;;;;;;;;;;13.33;85.56;100623.19;4373747;32;34431;-78
2022/11/14 12:13:04;;;;;;;;;;;;;;;13.19;86.90;100616.84;4342520;32;33659;-78
2022/11/14 12:16:11;;;;;;;;;;;;;;;13.57;86.02;100605.66;4366765;32;35435;-78
2022/11/14 12:19:23;;;;;;;;;;;;;;;14.15;83.62;100599.41;4365794;32;34403;-81
2022/11/14 12:22:30;;;;;;;;;;;;;;;13.95;84.17;100596.00;4365232;32;34130;-80
2022/11/14 12:25:53;;;;;;;;;;;;;;;14.21;82.81;100594.59;4374907;32;33738;-81
2022/11/14 12:29:16;;;;;;;;;;;;;;;14.09;83.11;100595.16;4375000;32;35814;-80
2022/11/14 12:32:32;;;;;;;;;;;;;;;14.06;83.54;100584.72;4373092;32;35676;-80
2022/11/14 12:35:39;;;;;;;;;;;;;;;13.59;85.75;100584.12;4366042;32;35250;-80
2022/11/14 12:38:51;;;;;;;25.60;14.07;;;;;;;13.62;85.83;100576.06;4345010;32;33143;-81
2022/11/14 12:42:02;;;;;;;24.00;13.50;;;;;;;13.77;85.26;100576.84;4372242;32;35114;-80
2022/11/14 12:45:35;;;;;;;26.05;17.15;;;;;;;13.95;82.13;100573.97;4363558;32;34713;-80
2022/11/14 12:48:41;;;;;;;23.55;16.15;;;;;;;13.92;82.78;100565.50;4374300;32;34602;-81
2022/11/14 12:51:50;;;;;;;24.23;15.40;;;;;;;13.83;82.66;100567.34;4372639;32;34012;-81
2022/11/14 12:54:55;;;;;;;18.60;11.75;;;;;;;14.28;81.69;100559.94;4355972;32;34508;-81
2022/11/14 12:58:06;;;;;;;22.50;11.23;;;;;;;14.17;80.16;100569.59;4375613;32;34404;-81
2022/11/14 13:01:49;;;;;;;20.90;13.50;;;;;;;14.35;78.80;100554.81;4372011;32;34576;-81
2022/11/14 13:05:23;;;;;;;18.75;10.48;;;;;;;14.36;78.17;100556.44;4375324;32;33905;-80
2022/11/14 13:08:46;;;;;;;;;;;;;;;14.65;74.70;100552.44;4377511;32;34336;-81
2022/11/14 13:22:41;;;;;;;;;;;;;;;14.48;72.47;100542.06;4387364;32;34811;-80
2022/11/14 13:25:45;;;;;;;;;;;;;;;14.30;73.33;100543.91;4385553;32;34786;-80
2022/11/14 13:28:50;;;;;;;;;;;;;;;14.30;74.87;100546.66;4376266;32;34807;-81
2022/11/14 13:31:55;;;;;;;;;;;;;;;14.32;73.52;100538.09;4376359;32;34139;-81
2022/11/14 13:35:02;;;;;;;;;;;;;;;14.18;72.96;100532.66;4387983;32;35514;-80
2022/11/14 13:38:25;;;;;;;;;;;;;;;14.02;74.74;100540.47;4385669;32;35649;-82
2022/11/14 13:41:44;;;;;;;;;;;;;;;14.27;74.76;100530.75;4384905;32;35763;-80
2022/11/14 13:45:07;;;;;;;;;;;;;;;14.27;73.34;100525.25;4373268;32;32848;-81
2022/11/14 13:48:18;;;;;;;;;;;;;;;14.16;75.53;100529.38;4383425;32;35720;-81
2022/11/14 13:51:23;;;;;;;;;;;;;;;13.98;77.21;100520.19;4382085;32;35324;-82
2022/11/14 13:54:48;;;;;;;;;;;;;;;14.10;76.47;100522.38;4384217;32;34544;-81
2022/11/14 13:58:05;;;;;;;;;;;;;;;14.26;76.67;100515.34;4374018;32;35642;-82
2022/11/14 14:01:16;;;;;;;;;;;;;;;13.97;79.04;100512.22;4383400;32;35672;-81
2022/11/14 14:04:37;;;;;;;;;;;;;;;14.16;77.23;100515.59;4384096;32;35209;-81
2022/11/14 14:07:41;;;;;;;;;;;;;;;14.21;78.50;100514.69;4384891;32;34394;-81
2022/11/14 14:10:58;;;;;;;;;;;;;;;14.12;78.19;100511.84;4378473;32;34067;-81
2022/11/14 14:14:21;;;;;;;;;;;;;;;14.32;76.04;100511.34;4374281;32;34675;-82
2022/11/14 14:17:42;;;;;;;;;;;;;;;14.07;76.96;100509.22;4382625;32;36115;-81
2022/11/14 14:20:47;;;;;;;;;;;;;;;14.48;75.35;100510.94;4382727;32;36161;-81
2022/11/14 14:24:08;;;;;;;;;;;;;;;14.24;77.46;100520.38;4380590;32;33631;-82
2022/11/14 14:27:13;;;;;;;;;;;;;;;14.15;78.00;100512.03;4379620;32;35042;-81
2022/11/14 14:30:18;;;;;;;;;;;;;;;13.81;78.79;100509.03;4382211;32;37305;-81
2022/11/14 14:33:24;;;;;;;;;;;;;;;14.01;77.11;100505.78;4382044;32;34903;-81
2022/11/14 14:36:29;;;;;;;;;;;;;;;13.98;76.56;100506.41;4379750;32;34122;-81
2022/11/14 14:39:33;;;;;;;;;;;;;;;13.79;76.77;100503.00;4381945;32;34859;-81
2022/11/14 14:42:39;;;;;;;;;;;;;;;13.92;75.70;100504.91;4385030;32;35646;-81
2022/11/14 14:45:45;;;;;;;;;;;;;;;13.96;75.53;100497.63;4374407;32;34846;-80
2022/11/14 14:48:49;;;;;;;;;;;;;;;14.04;74.12;100493.31;4382889;32;34830;-80
2022/11/14 14:51:53;;;;;;;;;;;;;;;13.92;74.33;100486.44;4374709;32;34494;-81
2022/11/14 14:55:03;;;;;;;;;;;;;;;13.87;75.43;100492.06;4381760;32;36180;-81
2022/11/14 14:58:28;;;;;;;;;;;;;;;13.75;77.33;100491.00;4380651;32;34340;-80
2022/11/14 15:01:33;;;;;;;;;;;;;;;13.47;79.45;100489.13;4383602;32;32799;-80
2022/11/14 15:04:38;;;;;;;;;;;;;;;13.23;82.43;100485.75;4385610;32;35400;-79
2022/11/14 15:07:45;;;;;;;;;;;;;;;13.15;83.93;100483.72;4382702;32;36030;-81
2022/11/14 15:10:49;;;;;;;;;;;;;;;13.23;83.65;100485.75;4374293;32;34814;-80
2022/11/14 15:13:55;;;;;;;;;;;;;;;13.03;83.94;100492.50;4372658;32;34864;-80
2022/11/14 15:17:00;;;;;;;;;;;;;;;13.17;83.48;100484.25;4378238;32;35923;-80
2022/11/14 15:20:16;;;;;;;;;;;;;;;12.73;85.59;100478.25;4375290;32;35203;-79
2022/11/14 15:23:20;;;;;;;;;;;;;;;12.71;85.95;100485.19;4386315;32;34687;-80
2022/11/14 15:26:25;;;;;;;;;;;;;;;12.34;87.56;100481.47;4379398;32;34124;-80
2022/11/14 15:29:31;;;;;;;;;;;;;;;12.15;88.70;100474.09;4372618;32;35757;-80
2022/11/14 15:32:36;;;;;;;;;;;;;;;11.92;90.66;100480.50;4369861;32;35306;-80
2022/11/14 15:35:41;;;;;;;;;;;;;;;11.84;90.68;100478.41;4378849;32;33536;-80
2022/11/14 15:38:58;;;;;;;;;;;;;;;11.93;90.08;100471.19;4383193;32;35838;-80
2022/11/14 15:42:13;;;;;;;;;;;;;;;11.46;92.38;100478.44;4373607;32;34829;-80
2022/11/14 15:45:25;;;;;;;;;;;;;;;11.02;95.71;100474.91;4383718;32;34896;-80
2022/11/14 15:48:30;;;;;;;;;;;;;;;11.17;94.33;100473.88;4385869;32;35663;-80
2022/11/14 15:51:57;;;;;;;;;;;;;;;11.56;92.50;100478.31;4370454;32;32664;-79
2022/11/14 15:55:02;;;;;;;;;;;;;;;11.31;93.53;100476.72;4376878;32;34960;-80
2022/11/14 15:58:08;;;;;;;;;;;;;;;11.05;95.09;100479.00;4372593;32;35490;-80
2022/11/14 16:01:33;;;;;;;;;;;;;;;10.88;96.21;100484.16;4385592;32;35676;-79
2022/11/14 16:04:38;;;;;;;;;;;;;;;10.47;98.97;100479.94;4390271;32;34721;-80
2022/11/14 16:07:50;;;;;;;;;;;;;;;11.07;95.45;100493.25;4384311;32;35878;-80
2022/11/14 16:10:55;;;;;;;;;;;;;;;10.39;98.53;100488.78;4376410;32;35232;-80
2022/11/14 16:14:00;;;;;;;;;;;;;;;10.57;97.70;100479.81;4388391;32;34472;-80